KBLI/BLI METAR and TAF weather

Enter ICAO airport designator
Station Type Date Time Source
KBLI METAR 2024/06/14 00:53 UTC NOAA

KBLI 140053Z 19006KT 10SM CLR 18/09 A3001 RMK AO2 SLP169 T01830094


Station Type Date Time Source
KBLI Decoded METAR 2024/06/14 00:53 UTC NOAA

BELLINGHAM INTERNATIONAL AIRPORT, WA, United States (KBLI) 48-48N 122-32W 50M
Jun 13, 2024 - 08:53 PM EDT / 2024.06.14 0053 UTC
Wind: from the S (190 degrees) at 7 MPH (6 KT):0
Visibility: 10 mile(s):0
Sky conditions: clear
Temperature: 64.9 F (18.3 C)
Dew Point: 48.9 F (9.4 C)
Relative Humidity: 56%
Pressure (altimeter): 30.01 in. Hg (1016 hPa)
ob: KBLI 140053Z 19006KT 10SM CLR 18/09 A3001 RMK AO2 SLP169 T01830094
cycle: 1

Station Type Date Time Source
KBLI TAF 2024/06/13 18:33 UTC NOAA